Tiempo atmosférico en la estación meteorológica de Alberca de Zancara, Cuenca (805 m.)

Fecha
DESCASC
Temp. máxima en grados centígrados (hora)
DESCASC
Temp. mínima en grados centígrados (hora)
DESCASC
Temp. media en grados centígrados
DESCASC
Racha de viento máxima en m/sg (hora)
DESCASC
Velocidad máxima media en intervalos de 10 minutos(hora)
DESCASC
Precipitaciones diarias en mm
DESCASC
Precipitaciones de 00:00 a 06:00 en mm
DESCASC
Precipitaciones de 06:00 a 12:00 en mm
DESCASC
Precipitaciones de 12:00 a 18:00 en mm
DESCASC
Precipitaciones de 18:00 a 24:00 en mm
DESCASC
17-09-2017 24.7 (16:10) 7.8 (08:00) 16.3 9.44 (15:40) 3.89 (15:20) 0 0 0 0 0
16-09-2017 22.3 (16:10) 9.6 (06:30) 15.9 9.44 (16:10) 3.89 (16:50) 0 0 0 0 0
15-09-2017 25.6 (16:10) 12.6 (23:59) 19.1 9.44 (13:50) 5 (13:50) 0.2 0 0.2 0 0
14-09-2017 30.3 (15:50) 12.2 (00:00) 21.2 9.72 (15:00) 5 (15:00) 0 0 0 0 0
13-09-2017 31.2 (16:40) 13.5 (00:00) 22.4 7.22 (13:00) 3.89 (22:30) 0 0 0 0 0
12-09-2017 27.3 (15:00) 13.8 (00:00) 20.5 9.17 (15:10) 5 (15:10) 0 0 0 0 0
11-09-2017 29.8 (16:20) 12.7 (00:00) 21.2 11.67 (16:50) 5.83 (18:30) 0 0 0 0 0
10-09-2017 22.7 (16:00) 10.7 (00:00) 16.7 10.28 (15:20) 5.28 (00:10) 0 0 0 0 0
09-09-2017 25 (15:10) 14.5 (00:00) 19.8 12.22 (17:50) 6.11 (18:20) 0 0 0 0 0
08-09-2017 31.5 (17:00) 14.4 (00:00) 22.9 8.06 (18:10) 3.89 (18:10) 0 0 0 0 0
07-09-2017 29.3 (17:40) 17 (00:00) 23.1 6.67 (19:10) 3.33 (11:00) 0 0 0 0 0
06-09-2017 33.4 (16:50) 17.4 (00:00) 25.4 12.5 (18:50) 6.11 (18:40) 0 0 0 0 0
05-09-2017 31.6 (17:10) 16.4 (00:00) 24 6.94 (09:20) 3.89 (10:10) 0 0 0 0 0
04-09-2017 30.1 (17:10) 14.7 (00:00) 22.4 7.5 (23:40) 3.06 (23:50) 0 0 0 0 0
03-09-2017 31.2 (17:30) 13.9 (00:00) 22.6 9.72 (15:30) 5.56 (15:30) 0 0 0 0 0
02-09-2017 28.6 (16:50) 15 (00:00) 21.8 8.61 (01:20) 3.61 (01:30) 0 0 0 0 0
01-09-2017 29.5 (17:00) 16.9 (00:00) 23.2 7.78 (22:20) 4.17 (22:30) 0 0 0 0 0
31-08-2017 28.7 (16:40) 14.5 (00:00) 21.6 6.11 (16:20) 2.5 (16:20) 0 0 0 0 0
30-08-2017 25.5 (17:30) 14.6 (00:00) 20.1 8.61 (00:30) 5 (00:30) 2 0.6 0.6 0.6 0.2
29-08-2017 24.8 (16:10) 15.2 (00:00) 20 9.17 (16:50) 5 (16:50) 3 0.8 0.8 0.8 0.6
28-08-2017 26.4 (15:30) 16.3 (00:00) 21.3 11.11 (17:10) 5.83 (17:20) 3 0.8 0.6 0.4 1.2
27-08-2017 25.9 (14:00) 17.5 (00:00) 21.7 16.39 (14:30) 6.39 (14:40) 2.8 0.4 0 1.2 1.2
26-08-2017 35.3 (15:00) 18.7 (00:00) 27 10 (17:40) 5.28 (17:40) 0 0 0 0 0
25-08-2017 35.9 (16:40) 18.6 (00:00) 27.3 13.61 (17:50) 5.28 (22:30) 0 0 0 0 0
24-08-2017 36.7 (17:20) 17.8 (00:00) 27.3 8.61 (18:00) 4.17 (00:10) 0 0 0 0 0
23-08-2017 36.8 (16:40) 19.3 (00:00) 28 9.17 (19:00) 5.56 (22:30) 0 0 0 0 0
22-08-2017 36.9 (17:00) 18.1 (00:00) 27.5 7.22 (23:30) 3.89 (23:30) 0 0 0 0 0

Gráficas

Temp. máximas Temp. mínimas Temp. medias Precipitaciones Rachas de viento máximas Velocidades máximas media en intervalos de 10 minutos

Datos horarios

Fecha y hora oficial Temperatura (ºC) Velocidad del viento (km/h) Dirección del viento Racha (km/h) Dirección de racha Precipitación (mm) Presión (hPa) Tendencia (hPa) Humedad (%)
2017-09-20 23:00:00 16.8 4 Este 6 Este 0 -- -- 37
2017-09-20 22:00:00 18.3 0 Calma 5 Este 0 -- -- 34
2017-09-20 21:00:00 20.5 0 Calma 5 Noroeste 0 -- -- 31
2017-09-20 20:00:00 23.5 3 Noroeste 13 Oeste 0 -- -- 28
2017-09-20 19:00:00 25.4 4 Sudoeste 18 Oeste 0 -- -- 26
2017-09-20 18:00:00 26.1 4 Oeste 15 Oeste 0 -- -- 25
2017-09-20 17:00:00 26.8 5 Sur 19 Oeste 0 -- -- 24
2017-09-20 16:00:00 27.3 5 Oeste 15 Noroeste 0 -- -- 24
2017-09-20 15:00:00 26.9 5 Oeste 14 Sudeste 0 -- -- 25
2017-09-20 14:00:00 26.3 6 Oeste 15 Oeste 0 -- -- 28
2017-09-20 13:00:00 24.4 6 Sur 14 Sur 0 -- -- 32
2017-09-20 12:00:00 21 5 Este 14 Este 0 -- -- 48
2017-09-20 11:00:00 17.7 7 Sudeste 15 Sudeste 0 -- -- 58
2017-09-20 10:00:00 14.2 9 Este 15 Nordeste 0 -- -- 60
2017-09-20 09:00:00 11.6 6 Este 12 Este 0 -- -- 59
2017-09-20 08:00:00 10.7 4 Este 8 Nordeste 0 -- -- 58
2017-09-20 07:00:00 11.3 2 Norte 10 Nordeste 0 -- -- 55
2017-09-20 06:00:00 12 0 Calma 13 Nordeste 0 -- -- 57
2017-09-20 05:00:00 12.9 4 Nordeste 11 Nordeste 0 -- -- 67
2017-09-20 04:00:00 12.1 3 Nordeste 7 Nordeste 0 -- -- 47
2017-09-20 03:00:00 12.4 0 Calma 4 Norte 0 -- -- 46
2017-09-20 02:00:00 13.3 0 Calma 13 Este 0 -- -- 42
2017-09-20 01:00:00 14.7 0 Calma 5 Norte 0 -- -- 40
2017-09-20 00:00:00 16.1 4 Norte 6 Norte 0 -- -- 38
2017-09-19 23:00:00 16.4 0 Calma 10 Noroeste 0 -- -- 38
2017-09-19 22:00:00 17.2 0 Calma 5 Oeste 0 -- -- 37
2017-09-19 21:00:00 19.5 3 Noroeste 7 Norte 0 -- -- 32
2017-09-19 20:00:00 22.5 3 Noroeste 18 Norte 0 -- -- 28
2017-09-19 19:00:00 23.9 9 Noroeste 23 Noroeste 0 -- -- 26
2017-09-19 18:00:00 24.4 11 Noroeste 28 Noroeste 0 -- -- 25
2017-09-19 17:00:00 25.2 10 Noroeste 30 Oeste 0 -- -- 26
2017-09-19 16:00:00 25.4 12 Noroeste 30 Noroeste 0 -- -- 28
2017-09-19 15:00:00 25.3 9 Oeste 23 Oeste 0 -- -- 29
2017-09-19 14:00:00 24.4 10 Oeste 23 Noroeste 0 -- -- 32
2017-09-19 13:00:00 22.8 4 Norte 21 Sudoeste 0 -- -- 34
2017-09-19 12:00:00 20.8 5 Sudoeste 13 Oeste 0 -- -- 39
2017-09-19 11:00:00 17.9 3 Sudeste 5 Este 0 -- -- 43
2017-09-19 10:00:00 14.3 0 Calma 5 Nordeste 0 -- -- 50
2017-09-19 09:00:00 10.3 0 Calma 4 Nordeste 0 -- -- 60
2017-09-19 08:00:00 9.3 0 Calma 3 Nordeste 0 -- -- 60
2017-09-19 07:00:00 9.8 0 Calma 4 Nordeste 0 -- -- 58
2017-09-19 06:00:00 10.4 2 Norte 6 Nordeste 0 -- -- 56
2017-09-19 05:00:00 11.5 3 Este 7 Sur 0 -- -- 54
2017-09-19 04:00:00 12.2 2 Norte 5 Norte 0 -- -- 53
2017-09-19 03:00:00 13.1 2 Norte 10 Noroeste 0 -- -- 50
2017-09-19 02:00:00 14.2 5 Norte 13 Norte 0 -- -- 47
2017-09-19 01:00:00 15.4 6 Norte 13 Norte 0 -- -- 45
2017-09-19 00:00:00 15.8 6 Norte 14 Noroeste 0 -- -- 44
2017-09-18 23:00:00 16.5 7 Norte 14 Norte 0 -- -- 42
2017-09-18 22:00:00 17.7 7 Noroeste 14 Noroeste 0 -- -- 40
2017-09-18 21:00:00 19.1 9 Noroeste 17 Noroeste 0 -- -- 39
2017-09-18 20:00:00 20.7 14 Noroeste 31 Noroeste 0 -- -- 36
2017-09-18 19:00:00 22 15 Noroeste 33 Noroeste 0 -- -- 35
2017-09-18 18:00:00 22.9 18 Noroeste 41 Noroeste 0 -- -- 33
2017-09-18 17:00:00 23.5 22 Noroeste 39 Noroeste 0 -- -- 32
2017-09-18 16:00:00 24.1 19 Noroeste 36 Noroeste 0 -- -- 31
2017-09-18 15:00:00 24.2 15 Oeste 35 Noroeste 0 -- -- 30
2017-09-18 14:00:00 23.6 14 Oeste 32 Oeste 0 -- -- 31
2017-09-18 13:00:00 22.5 13 Oeste 26 Oeste 0 -- -- 30
2017-09-18 12:00:00 20.1 11 Oeste 24 Oeste 0 -- -- 31
2017-09-18 11:00:00 17 7 Sudoeste 17 Sudoeste 0 -- -- 31
2017-09-18 10:00:00 13.6 6 Oeste 15 Oeste 0 -- -- 36
2017-09-18 09:00:00 10.2 6 Oeste 12 Oeste 0 -- -- 43
2017-09-18 08:00:00 8.7 0 Calma 5 Oeste 0 -- -- 46
2017-09-18 07:00:00 9 0 Calma 4 Oeste 0 -- -- 44
2017-09-18 06:00:00 9.4 0 Calma 4 Sudoeste 0 -- -- 42
2017-09-18 05:00:00 9.8 0 Calma 2 Noroeste 0 -- -- 42
2017-09-18 04:00:00 10.6 0 Calma 3 Noroeste 0 -- -- 41
2017-09-18 03:00:00 11.7 0 Calma 3 Oeste 0 -- -- 39
2017-09-18 02:00:00 13.3 3 Sur 12 Sur 0 -- -- 36
2017-09-18 01:00:00 15.5 3 Noroeste 14 Norte 0 -- -- 34
2017-09-18 00:00:00 15 3 Noroeste 6 Norte 0 -- -- 34
2017-09-17 23:00:00 16.6 3 Norte 13 Noroeste 0 -- -- 30
2017-09-17 22:00:00 18.1 6 Oeste 11 Oeste 0 -- -- 27
2017-09-17 21:00:00 20.2 4 Oeste 16 Sudoeste 0 -- -- 26
2017-09-17 20:00:00 22.4 8 Oeste 26 Oeste 0 -- -- 23
2017-09-17 19:00:00 23.4 10 Oeste 27 Oeste 0 -- -- 22
2017-09-17 18:00:00 24 9 Oeste 25 Oeste 0 -- -- 22
2017-09-17 17:00:00 24.3 12 Oeste 33 Noroeste 0 -- -- 22
2017-09-17 16:00:00 24.4 9 Oeste 34 Sudoeste 0 -- -- 23
2017-09-17 15:00:00 24 12 Oeste 24 Oeste 0 -- -- 23
2017-09-17 14:00:00 23.3 12 Oeste 30 Sudoeste 0 -- -- 24
2017-09-17 13:00:00 21.5 8 Oeste 18 Sudoeste 0 -- -- 28
2017-09-17 12:00:00 18.3 4 Sudoeste 10 Sur 0 -- -- 42
2017-09-17 11:00:00 15.3 3 Sudeste 10 Este 0 -- -- 56
2017-09-17 10:00:00 12.1 7 Este 13 Este 0 -- -- 77
2017-09-17 09:00:00 8.6 3 Este 6 Este 0 -- -- 74
2017-09-17 08:00:00 7.8 3 Este 8 Este 0 -- -- 74
2017-09-17 07:00:00 8.9 4 Este 10 Nordeste 0 -- -- 74
2017-09-17 06:00:00 9.2 4 Nordeste 9 Nordeste 0 -- -- 72
2017-09-17 05:00:00 9.7 5 Nordeste 10 Nordeste 0 -- -- 52
2017-09-17 04:00:00 9.9 2 Nordeste 6 Nordeste 0 -- -- 43
2017-09-17 03:00:00 10.9 3 Este 6 Sur 0 -- -- 40
2017-09-17 02:00:00 11.1 2 Nordeste 5 Este 0 -- -- 39
2017-09-17 01:00:00 11.6 0 Calma 5 Norte 0 -- -- 40
2017-09-17 00:00:00 12.7 0 Calma 5 Noroeste 0 -- -- 38
2017-09-16 23:00:00 13.9 5 Norte 8 Norte 0 -- -- 35
2017-09-16 22:00:00 15 3 Norte 7 Noroeste 0 -- -- 33
2017-09-16 21:00:00 16.9 4 Noroeste 14 Noroeste 0 -- -- 30
2017-09-16 20:00:00 18.6 11 Noroeste 26 Noroeste 0 -- -- 29
2017-09-16 19:00:00 19.8 10 Oeste 28 Oeste 0 -- -- 26
2017-09-16 18:00:00 20.4 10 Noroeste 28 Noroeste 0 -- -- 26
2017-09-16 17:00:00 21 12 Oeste 34 Noroeste 0 -- -- 26
2017-09-16 16:00:00 22 7 Oeste 20 Noroeste 0 -- -- 27
2017-09-16 15:00:00 20.8 4 Norte 18 Noroeste 0 -- -- 27
2017-09-16 14:00:00 20 7 Noroeste 17 Oeste 0 -- -- 28
2017-09-16 13:00:00 19.3 5 Nordeste 19 Este 0 -- -- 36
2017-09-16 12:00:00 17.3 5 Este 13 Este 0 -- -- 44
2017-09-16 11:00:00 15.3 6 Este 12 Este 0 -- -- 50
2017-09-16 10:00:00 12.6 6 Nordeste 13 Nordeste 0 -- -- 54
2017-09-16 09:00:00 10.5 3 Nordeste 9 Nordeste 0 -- -- 59
2017-09-16 08:00:00 10 4 Nordeste 11 Nordeste 0 -- -- 60
2017-09-16 07:00:00 9.6 3 Nordeste 9 Nordeste 0 -- -- 65
2017-09-16 06:00:00 9.7 5 Nordeste 8 Nordeste 0 -- -- 64
2017-09-16 05:00:00 10.3 5 Nordeste 13 Nordeste 0 -- -- 62
2017-09-16 04:00:00 10.1 7 Nordeste 12 Nordeste 0 -- -- 62
2017-09-16 03:00:00 10 5 Nordeste 14 Nordeste 0 -- -- 61
2017-09-16 02:00:00 10.9 6 Nordeste 14 Este 0 -- -- 58
2017-09-16 01:00:00 11.7 7 Este 14 Este 0 -- -- 56
2017-09-16 00:00:00 12.6 7 Este 18 Este 0 -- -- 53
2017-09-15 23:00:00 14.2 9 Este 21 Este 0 -- -- 54
2017-09-15 22:00:00 16.8 13 Nordeste 26 Nordeste 0 -- -- 40
2017-09-15 21:00:00 17.8 11 Norte 24 Nordeste 0 -- -- 40
2017-09-15 20:00:00 19.1 13 Norte 28 Norte 0 -- -- 39
2017-09-15 19:00:00 20.7 14 Norte 31 Noroeste 0 -- -- 39
2017-09-15 18:00:00 22.2 17 Norte 32 Noroeste 0 -- -- 39
2017-09-15 17:00:00 24.2 13 Oeste 31 Sudoeste 0 -- -- 35
2017-09-15 16:00:00 25.2 14 Oeste 34 Oeste 0 -- -- 33
2017-09-15 15:00:00 24.9 14 Oeste 31 Oeste 0 -- -- 36
2017-09-15 14:00:00 24.2 13 Sudoeste 34 Oeste 0 -- -- 31
2017-09-15 13:00:00 23.3 15 Oeste 34 Oeste 0 -- -- 39
2017-09-15 12:00:00 22.1 9 Sudoeste 26 Oeste 0.2 -- -- 46
2017-09-15 11:00:00 20 9 Sudoeste 23 Sudoeste 0 -- -- 57
2017-09-15 10:00:00 17.2 10 Sudeste 22 Sudeste 0 -- -- 75
2017-09-15 09:00:00 15.5 10 Sudeste 19 Sudeste 0 -- -- 88
2017-09-15 08:00:00 14 5 Este 10 Este 0 -- -- 86
2017-09-15 07:00:00 14.2 2 Este 10 Este 0 -- -- 78
2017-09-15 06:00:00 14.7 3 Nordeste 8 Este 0 -- -- 77
2017-09-15 05:00:00 15.2 4 Este 9 Sudeste 0 -- -- 73
2017-09-15 04:00:00 15.9 3 Este 7 Nordeste 0 -- -- 67
2017-09-15 03:00:00 16.5 5 Nordeste 8 Nordeste 0 -- -- 64
2017-09-15 02:00:00 17.1 3 Este 10 Este 0 -- -- 58
2017-09-15 01:00:00 18 5 Este 14 Nordeste 0 -- -- 36
2017-09-15 00:00:00 18.7 2 Sur 7 Sur 0 -- -- 37
2017-09-14 23:00:00 19.9 2 Norte 5 Oeste 0 -- -- 35
2017-09-14 22:00:00 22 3 Noroeste 6 Sudoeste 0 -- -- 34
2017-09-14 21:00:00 24.3 5 Noroeste 15 Noroeste 0 -- -- 31
2017-09-14 20:00:00 26.9 9 Noroeste 18 Noroeste 0 -- -- 28
2017-09-14 19:00:00 28.4 10 Noroeste 26 Noroeste 0 -- -- 25
2017-09-14 18:00:00 29.3 7 Noroeste 28 Oeste 0 -- -- 23
2017-09-14 17:00:00 30 12 Oeste 29 Noroeste 0 -- -- 23
2017-09-14 16:00:00 30.1 11 Noroeste 34 Noroeste 0 -- -- 25
2017-09-14 15:00:00 29.6 18 Noroeste 35 Noroeste 0 -- -- 25
2017-09-14 14:00:00 29.3 14 Oeste 32 Noroeste 0 -- -- 26
2017-09-14 13:00:00 27.8 14 Oeste 27 Oeste 0 -- -- 30
2017-09-14 12:00:00 24.9 9 Oeste 18 Oeste 0 -- -- 33
2017-09-14 11:00:00 21.6 6 Sudoeste 18 Sudoeste 0 -- -- 38
2017-09-14 10:00:00 18.4 6 Sudoeste 13 Sudoeste 0 -- -- 44
2017-09-14 09:00:00 13.3 0 Calma 3 Este 0 -- -- 72
2017-09-14 08:00:00 12.3 0 Calma 3 Nordeste 0 -- -- 71
2017-09-14 07:00:00 13 0 Calma 2 Norte 0 -- -- 71
2017-09-14 06:00:00 13.7 0 Calma 2 Nordeste 0 -- -- 68
2017-09-14 05:00:00 14.7 0 Calma 4 Sudeste 0 -- -- 67
2017-09-14 04:00:00 15.2 2 Nordeste 5 Este 0 -- -- 65
2017-09-14 03:00:00 16.2 0 Calma 5 Noroeste 0 -- -- 64
2017-09-14 02:00:00 17.6 0 Calma 7 Este 0 -- -- 61
2017-09-14 01:00:00 19 3 Este 8 Este 0 -- -- 58
2017-09-14 00:00:00 20.7 3 Este 12 Este 0 -- -- 54
2017-09-13 23:00:00 22.2 8 Sudeste 24 Sudeste 0 -- -- 49
2017-09-13 22:00:00 23.8 12 Sudeste 24 Sudeste 0 -- -- 44
2017-09-13 21:00:00 25.4 10 Sudeste 18 Sudeste 0 -- -- 35
2017-09-13 20:00:00 28.1 9 Oeste 24 Oeste 0 -- -- 20
2017-09-13 19:00:00 29.6 11 Oeste 24 Oeste 0 -- -- 20
2017-09-13 18:00:00 30.4 8 Oeste 24 Oeste 0 -- -- 22
2017-09-13 17:00:00 31.2 7 Noroeste 23 Oeste 0 -- -- 23
2017-09-13 16:00:00 30.9 7 Sur 22 Sur 0 -- -- 25
2017-09-13 15:00:00 30 6 Sudeste 19 Sur 0 -- -- 29
2017-09-13 14:00:00 28.6 8 Sudeste 23 Sudeste 0 -- -- 36
2017-09-13 13:00:00 26.3 12 Sudeste 26 Sur 0 -- -- 45
2017-09-13 12:00:00 23.5 11 Sudeste 23 Sudeste 0 -- -- 52
2017-09-13 11:00:00 20.7 10 Sudeste 19 Sudeste 0 -- -- 65
2017-09-13 10:00:00 17.2 8 Este 14 Nordeste 0 -- -- 75
2017-09-13 09:00:00 14.1 3 Este 14 Nordeste 0 -- -- 78
2017-09-13 08:00:00 13.5 9 Nordeste 14 Nordeste 0 -- -- 80
2017-09-13 07:00:00 13.6 6 Nordeste 14 Nordeste 0 -- -- 80
2017-09-13 06:00:00 14 8 Nordeste 16 Nordeste 0 -- -- 78
2017-09-13 05:00:00 14.2 4 Nordeste 12 Nordeste 0 -- -- 77
2017-09-13 04:00:00 14.8 3 Nordeste 15 Nordeste 0 -- -- 75
2017-09-13 03:00:00 15.5 8 Nordeste 15 Nordeste 0 -- -- 69
2017-09-13 02:00:00 16.1 5 Nordeste 11 Este 0 -- -- 48
2017-09-13 01:00:00 16.8 3 Sur 11 Sudeste 0 -- -- 41
2017-09-13 00:00:00 18.2 2 Noroeste 11 Norte 0 -- -- 38
2017-09-12 23:00:00 19.8 6 Norte 12 Norte 0 -- -- 34
2017-09-12 22:00:00 20.4 4 Norte 10 Norte 0 -- -- 32
2017-09-12 21:00:00 22.2 4 Norte 12 Norte 0 -- -- 28
2017-09-12 20:00:00 24.4 9 Noroeste 24 Noroeste 0 -- -- 26
2017-09-12 19:00:00 25.7 12 Noroeste 26 Noroeste 0 -- -- 28
2017-09-12 18:00:00 26.3 13 Noroeste 27 Norte 0 -- -- 28
2017-09-12 17:00:00 27.2 13 Noroeste 30 Noroeste 0 -- -- 27
2017-09-12 16:00:00 26.9 13 Noroeste 33 Noroeste 0 -- -- 27
2017-09-12 15:00:00 27.3 11 Noroeste 26 Noroeste 0 -- -- 27
2017-09-12 14:00:00 26.3 9 Noroeste 21 Noroeste 0 -- -- 32
2017-09-12 13:00:00 24.4 7 Norte 27 Noroeste 0 -- -- 37
2017-09-12 12:00:00 22.7 10 Noroeste 18 Norte 0 -- -- 40
2017-09-12 11:00:00 20.8 4 Norte 13 Norte 0 -- -- 44
2017-09-12 10:00:00 18.5 6 Norte 13 Norte 0 -- -- 49
2017-09-12 09:00:00 14.6 3 Sudoeste 8 Noroeste 0 -- -- 57
2017-09-12 08:00:00 14.1 4 Norte 9 Norte 0 -- -- 59
2017-09-12 07:00:00 14 2 Noroeste 8 Norte 0 -- -- 58
2017-09-12 06:00:00 15 0 Calma 8 Sur 0 -- -- 55
2017-09-12 05:00:00 15.5 3 Sur 5 Sur 0 -- -- 53
2017-09-12 04:00:00 16.2 0 Calma 8 Sur 0 -- -- 51
2017-09-12 03:00:00 18 3 Sudoeste 9 Noroeste 0 -- -- 47
2017-09-12 02:00:00 19.6 6 Noroeste 15 Noroeste 0 -- -- 45
2017-09-12 01:00:00 20.6 3 Noroeste 15 Norte 0 -- -- 41
2017-09-12 00:00:00 21.9 9 Noroeste 26 Noroeste 0 -- -- 36
2017-09-11 23:00:00 23.2 16 Noroeste 28 Noroeste 0 -- -- 31
2017-09-11 22:00:00 23.1 9 Noroeste 16 Noroeste 0 -- -- 28
2017-09-11 21:00:00 24.7 6 Noroeste 26 Noroeste 0 -- -- 25
2017-09-11 20:00:00 27.2 17 Noroeste 34 Noroeste 0 -- -- 22
2017-09-11 19:00:00 28.4 17 Noroeste 39 Oeste 0 -- -- 22
2017-09-11 18:00:00 29 13 Oeste 34 Noroeste 0 -- -- 21
2017-09-11 17:00:00 29.7 16 Noroeste 42 Noroeste 0 -- -- 21
2017-09-11 16:00:00 29.7 15 Oeste 34 Oeste 0 -- -- 22
2017-09-11 15:00:00 28.7 18 Oeste 37 Oeste 0 -- -- 25
2017-09-11 14:00:00 27.9 14 Oeste 30 Noroeste 0 -- -- 27
2017-09-11 13:00:00 26.3 15 Oeste 33 Oeste 0 -- -- 27
2017-09-11 12:00:00 23.9 14 Oeste 26 Oeste 0 -- -- 28
2017-09-11 11:00:00 21 9 Oeste 18 Oeste 0 -- -- 32
2017-09-11 10:00:00 17.3 3 Oeste 7 Noroeste 0 -- -- 38
2017-09-11 09:00:00 14.5 0 Calma 10 Oeste 0 -- -- 44
2017-09-11 08:00:00 13.7 7 Oeste 13 Oeste 0 -- -- 42
2017-09-11 07:00:00 12.7 3 Oeste 7 Noroeste 0 -- -- 45
2017-09-11 06:00:00 13.8 2 Oeste 16 Oeste 0 -- -- 42
2017-09-11 05:00:00 13.5 3 Oeste 15 Noroeste 0 -- -- 43
2017-09-11 04:00:00 13.8 3 Sudoeste 9 Sudoeste 0 -- -- 42
2017-09-11 03:00:00 14.9 0 Calma 14 Noroeste 0 -- -- 40
2017-09-11 02:00:00 15.9 4 Noroeste 14 Noroeste 0 -- -- 38
2017-09-11 01:00:00 16.2 6 Noroeste 11 Noroeste 0 -- -- 38
2017-09-11 00:00:00 16.3 6 Noroeste 10 Noroeste 0 -- -- 37
2017-09-10 23:00:00 17.1 5 Oeste 11 Oeste 0 -- -- 36
2017-09-10 22:00:00 17.5 0 Calma 10 Noroeste 0 -- -- 35
2017-09-10 21:00:00 19 6 Noroeste 19 Noroeste 0 -- -- 31
2017-09-10 20:00:00 20.3 11 Noroeste 28 Noroeste 0 -- -- 30
2017-09-10 19:00:00 21.3 14 Noroeste 34 Oeste 0 -- -- 29
2017-09-10 18:00:00 21.9 16 Noroeste 32 Norte 0 -- -- 28
2017-09-10 17:00:00 22.7 16 Noroeste 35 Noroeste 0 -- -- 27
2017-09-10 16:00:00 22.7 14 Noroeste 37 Oeste 0 -- -- 27
2017-09-10 15:00:00 22 15 Noroeste 33 Noroeste 0 -- -- 29
2017-09-10 14:00:00 20.9 14 Norte 37 Noroeste 0 -- -- 31
2017-09-10 13:00:00 19.2 18 Noroeste 37 Noroeste 0 -- -- 35
2017-09-10 12:00:00 17.6 16 Norte 33 Noroeste 0 -- -- 39
2017-09-10 11:00:00 16 13 Norte 29 Norte 0 -- -- 45
2017-09-10 10:00:00 13.8 13 Norte 27 Norte 0 -- -- 52
2017-09-10 09:00:00 11.5 11 Norte 26 Noroeste 0 -- -- 60
2017-09-10 08:00:00 10.7 9 Norte 24 Norte 0 -- -- 63
2017-09-10 07:00:00 10.8 9 Norte 18 Norte 0 -- -- 63
2017-09-10 06:00:00 10.9 7 Norte 14 Noroeste 0 -- -- 64
2017-09-10 05:00:00 11.3 6 Norte 19 Norte 0 -- -- 63
2017-09-10 04:00:00 12 8 Norte 17 Norte 0 -- -- 60
2017-09-10 03:00:00 13 9 Norte 18 Norte 0 -- -- 57
2017-09-10 02:00:00 14.2 7 Norte 16 Nordeste 0 -- -- 53
2017-09-10 01:00:00 16 6 Norte 31 Noroeste 0 -- -- 39
2017-09-10 00:00:00 17 16 Noroeste 26 Noroeste 0 -- -- 32
2017-09-09 23:00:00 17.8 9 Noroeste 21 Noroeste 0 -- -- 32
2017-09-09 22:00:00 18.7 10 Noroeste 26 Noroeste 0 -- -- 32
2017-09-09 21:00:00 19.7 11 Noroeste 27 Noroeste 0 -- -- 33
2017-09-09 20:00:00 21.1 14 Noroeste 37 Noroeste 0 -- -- 35
2017-09-09 19:00:00 22.3 17 Noroeste 38 Noroeste 0 -- -- 33
2017-09-09 18:00:00 22.7 19 Noroeste 44 Noroeste 0 -- -- 35
2017-09-09 17:00:00 22.8 16 Noroeste 32 Noroeste 0 -- -- 39
2017-09-09 16:00:00 24 17 Noroeste 36 Oeste 0 -- -- 36
2017-09-09 15:00:00 24.8 17 Noroeste 36 Noroeste 0 -- -- 34
2017-09-09 14:00:00 24 15 Oeste 31 Oeste 0 -- -- 35
2017-09-09 13:00:00 23.9 17 Noroeste 32 Noroeste 0 -- -- 34
2017-09-09 12:00:00 20.9 13 Oeste 27 Noroeste 0 -- -- 35
2017-09-09 11:00:00 19.1 10 Oeste 23 Oeste 0 -- -- 33
2017-09-09 10:00:00 17.5 11 Oeste 25 Sudoeste 0 -- -- 34
2017-09-09 09:00:00 15.7 10 Oeste 20 Oeste 0 -- -- 37
2017-09-09 08:00:00 15 10 Oeste 18 Oeste 0 -- -- 35
2017-09-09 07:00:00 14.7 5 Sudoeste 10 Sudoeste 0 -- -- 33
2017-09-09 06:00:00 15.1 9 Oeste 14 Oeste 0 -- -- 32
2017-09-09 05:00:00 15.8 6 Oeste 14 Oeste 0 -- -- 30
2017-09-09 04:00:00 16.3 6 Oeste 14 Oeste 0 -- -- 29
2017-09-09 03:00:00 16.5 3 Oeste 6 Oeste 0 -- -- 32
2017-09-09 02:00:00 17.7 3 Oeste 6 Oeste 0 -- -- 34
2017-09-09 01:00:00 19.5 0 Calma 10 Noroeste 0 -- -- 30
2017-09-09 00:00:00 21.4 6 Noroeste 15 Noroeste 0 -- -- 26
2017-09-08 23:00:00 21.8 4 Norte 11 Norte 0 -- -- 28
2017-09-08 22:00:00 22.3 8 Noroeste 15 Noroeste 0 -- -- 25
2017-09-08 21:00:00 24.5 0 Calma 7 Sudoeste 0 -- -- 26
2017-09-08 20:00:00 27.8 5 Oeste 20 Oeste 0 -- -- 22
2017-09-08 19:00:00 29.4 10 Oeste 29 Oeste 0 -- -- 19
2017-09-08 18:00:00 30.5 9 Oeste 25 Oeste 0 -- -- 18
2017-09-08 17:00:00 31.5 10 Oeste 24 Oeste 0 -- -- 18
2017-09-08 16:00:00 31.4 8 Sudoeste 20 Oeste 0 -- -- 21
2017-09-08 15:00:00 30.4 10 Oeste 21 Oeste 0 -- -- 23
2017-09-08 14:00:00 28.4 4 Este 14 Sur 0 -- -- 38
2017-09-08 13:00:00 25.8 5 Sudeste 15 Este 0 -- -- 51
2017-09-08 12:00:00 22.4 8 Este 17 Este 0 -- -- 68
2017-09-08 11:00:00 19.3 10 Este 17 Nordeste 0 -- -- 80
2017-09-08 10:00:00 16.5 6 Este 15 Nordeste 0 -- -- 86
2017-09-08 09:00:00 15.4 3 Nordeste 9 Nordeste 0 -- -- 89
2017-09-08 08:00:00 14.9 5 Nordeste 10 Nordeste 0 -- -- 70
2017-09-08 07:00:00 14.4 3 Este 8 Este 0 -- -- 59
2017-09-08 06:00:00 15.6 3 Este 12 Nordeste 0 -- -- 57
2017-09-08 05:00:00 16.6 6 Nordeste 13 Nordeste 0 -- -- 61
2017-09-08 04:00:00 17.2 5 Nordeste 13 Nordeste 0 -- -- 82
2017-09-08 03:00:00 17.9 5 Nordeste 14 Nordeste 0 -- -- 77
2017-09-08 02:00:00 18.5 6 Nordeste 15 Este 0 -- -- 75
2017-09-08 01:00:00 19.1 7 Nordeste 18 Nordeste 0 -- -- 58
2017-09-08 00:00:00 20.7 6 Nordeste 14 Norte 0 -- -- 26
2017-09-07 23:00:00 21.5 5 Norte 13 Norte 0 -- -- 23
2017-09-07 22:00:00 22.1 6 Norte 10 Norte 0 -- -- 23
2017-09-07 21:00:00 24.3 3 Norte 13 Noroeste 0 -- -- 26
2017-09-07 20:00:00 27.2 9 Noroeste 24 Noroeste 0 -- -- 25
2017-09-07 19:00:00 28.4 9 Noroeste 22 Norte 0 -- -- 32
2017-09-07 18:00:00 29.2 10 Noroeste 22 Noroeste 0 -- -- 33
2017-09-07 17:00:00 29.1 10 Oeste 22 Oeste 0 -- -- 37
2017-09-07 16:00:00 27.9 6 Este 16 Este 0 -- -- 44
2017-09-07 15:00:00 28 5 Nordeste 17 Nordeste 0 -- -- 48
2017-09-07 14:00:00 27.1 9 Sudeste 20 Este 0 -- -- 51
2017-09-07 13:00:00 25.2 7 Nordeste 21 Nordeste 0 -- -- 57
2017-09-07 12:00:00 23.7 10 Este 19 Este 0 -- -- 65
2017-09-07 11:00:00 21.7 12 Este 22 Este 0 -- -- 73
2017-09-07 10:00:00 19.8 10 Este 19 Sudeste 0 -- -- 82
2017-09-07 09:00:00 18.2 9 Este 18 Este 0 -- -- 89
2017-09-07 08:00:00 18.1 7 Este 18 Este 0 -- -- 87
2017-09-07 07:00:00 18 10 Este 18 Este 0 -- -- 88
2017-09-07 06:00:00 17.1 8 Este 17 Nordeste 0 -- -- 89
2017-09-07 05:00:00 17.1 8 Este 17 Este 0 -- -- 88
2017-09-07 04:00:00 17.4 8 Este 17 Nordeste 0 -- -- 86
2017-09-07 03:00:00 18 6 Este 15 Este 0 -- -- 83
2017-09-07 02:00:00 18.4 8 Nordeste 18 Este 0 -- -- 83
2017-09-07 01:00:00 18.6 9 Este 18 Nordeste 0 -- -- 83
2017-09-07 00:00:00 19.5 9 Nordeste 20 Nordeste 0 -- -- 76
2017-09-06 23:00:00 20.3 5 Este 24 Sudeste 0 -- -- 70
2017-09-06 22:00:00 20.6 9 Este 21 Este 0 -- -- 72
2017-09-06 21:00:00 22.1 11 Nordeste 31 Este 0 -- -- 66
2017-09-06 20:00:00 25.2 15 Este 37 Sudeste 0 -- -- 52
2017-09-06 19:00:00 26.9 18 Este 45 Este 0 -- -- 45
2017-09-06 18:00:00 31.1 3 Este 16 Oeste 0 -- -- 31
2017-09-06 17:00:00 33.3 8 Noroeste 23 Sudoeste 0 -- -- 28
2017-09-06 16:00:00 31.6 8 Sur 17 Sur 0 -- -- 31
2017-09-06 15:00:00 32.2 10 Sur 19 Sudeste 0 -- -- 31
2017-09-06 14:00:00 31.4 5 Sudeste 16 Sur 0 -- -- 35
2017-09-06 13:00:00 29.4 7 Sudeste 17 Sudeste 0 -- -- 42
2017-09-06 12:00:00 26.9 8 Sudeste 15 Sudeste 0 -- -- 47
2017-09-06 11:00:00 24.1 9 Este 17 Sudeste 0 -- -- 59
2017-09-06 10:00:00 21 9 Este 16 Este 0 -- -- 74
2017-09-06 09:00:00 18.5 3 Nordeste 8 Nordeste 0 -- -- 84
2017-09-06 08:00:00 17.4 4 Nordeste 9 Este 0 -- -- 87
2017-09-06 07:00:00 17.7 5 Este 14 Este 0 -- -- 86
2017-09-06 06:00:00 18 7 Nordeste 14 Nordeste 0 -- -- 83
2017-09-06 05:00:00 18.2 8 Nordeste 13 Nordeste 0 -- -- 75
2017-09-06 04:00:00 18.8 8 Nordeste 13 Nordeste 0 -- -- 69
2017-09-06 03:00:00 19.4 6 Nordeste 11 Este 0 -- -- 64
2017-09-06 02:00:00 20.3 3 Este 9 Este 0 -- -- 59
2017-09-06 01:00:00 21 0 Calma 5 Nordeste 0 -- -- 58
2017-09-06 00:00:00 21.5 0 Calma 13 Este 0 -- -- 49
2017-09-05 23:00:00 22.7 2 Nordeste 6 Norte 0 -- -- 44
2017-09-05 22:00:00 24.2 2 Noroeste 8 Noroeste 0 -- -- 41
2017-09-05 21:00:00 26.2 3 Oeste 7 Oeste 0 -- -- 37
2017-09-05 20:00:00 28.4 3 Oeste 12 Oeste 0 -- -- 33
2017-09-05 19:00:00 29.6 4 Oeste 16 Noroeste 0 -- -- 31
2017-09-05 18:00:00 30.4 3 Este 16 Noroeste 0 -- -- 30
2017-09-05 17:00:00 31.5 5 Sur 15 Sur 0 -- -- 30
2017-09-05 16:00:00 30.9 5 Noroeste 13 Noroeste 0 -- -- 31
2017-09-05 15:00:00 30.2 4 Noroeste 13 Nordeste 0 -- -- 34
2017-09-05 14:00:00 28.9 9 Sudeste 19 Este 0 -- -- 41
2017-09-05 13:00:00 26.9 9 Sudeste 20 Este 0 -- -- 50
2017-09-05 12:00:00 24.2 8 Sudeste 23 Sudeste 0 -- -- 61
2017-09-05 11:00:00 21.7 12 Sudeste 23 Sudeste 0 -- -- 72
2017-09-05 10:00:00 19.5 13 Sudeste 25 Este 0 -- -- 81
2017-09-05 09:00:00 17.3 8 Este 17 Este 0 -- -- 92
2017-09-05 08:00:00 16.4 6 Este 13 Este 0 -- -- 91
2017-09-05 07:00:00 16.7 5 Este 13 Este 0 -- -- 91
2017-09-05 06:00:00 16.9 5 Este 16 Este 0 -- -- 91
2017-09-05 05:00:00 17.4 6 Este 12 Este 0 -- -- 89
2017-09-05 04:00:00 17.8 6 Nordeste 13 Este 0 -- -- 88
2017-09-05 03:00:00 18.3 5 Nordeste 21 Este 0 -- -- 85
2017-09-05 02:00:00 18.9 10 Este 23 Este 0 -- -- 82
2017-09-05 01:00:00 19.5 12 Este 23 Este 0 -- -- 79
2017-09-05 00:00:00 20.4 10 Este 27 Este 0 -- -- 73
2017-09-04 23:00:00 21.5 8 Sudeste 19 Este 0 -- -- 66
2017-09-04 22:00:00 22.3 0 Calma 4 Oeste 0 -- -- 39
2017-09-04 21:00:00 24.8 0 Calma 8 Noroeste 0 -- -- 35
2017-09-04 20:00:00 27 4 Noroeste 12 Norte 0 -- -- 31
2017-09-04 19:00:00 27.8 3 Norte 17 Noroeste 0 -- -- 29
2017-09-04 18:00:00 29.1 6 Noroeste 18 Noroeste 0 -- -- 27
2017-09-04 17:00:00 29.9 6 Norte 22 Noroeste 0 -- -- 26
2017-09-04 16:00:00 29.8 9 Noroeste 22 Norte 0 -- -- 26
2017-09-04 15:00:00 30 9 Noroeste 19 Noroeste 0 -- -- 25
2017-09-04 14:00:00 29.3 6 Noroeste 18 Oeste 0 -- -- 25
2017-09-04 13:00:00 27.9 7 Este 16 Sudeste 0 -- -- 26
2017-09-04 12:00:00 25.5 3 Norte 10 Nordeste 0 -- -- 29
2017-09-04 11:00:00 22.8 5 Norte 13 Norte 0 -- -- 33
2017-09-04 10:00:00 19.3 0 Calma 6 Sudoeste 0 -- -- 38
2017-09-04 09:00:00 15.7 2 Sur 6 Noroeste 0 -- -- 45
2017-09-04 08:00:00 14.8 3 Este 8 Sudeste 0 -- -- 45
2017-09-04 07:00:00 15.2 0 Calma 9 Oeste 0 -- -- 44
2017-09-04 06:00:00 16 4 Oeste 11 Sudoeste 0 -- -- 42
2017-09-04 05:00:00 17 8 Oeste 16 Oeste 0 -- -- 40
2017-09-04 04:00:00 17.2 5 Oeste 11 Oeste 0 -- -- 41
2017-09-04 03:00:00 18.4 2 Sudoeste 9 Oeste 0 -- -- 33
2017-09-04 02:00:00 18.6 0 Calma 5 Noroeste 0 -- -- 34
2017-09-04 01:00:00 20.6 2 Noroeste 10 Oeste 0 -- -- 29
2017-09-04 00:00:00 21.5 8 Noroeste 13 Oeste 0 -- -- 27
2017-09-03 23:00:00 20.8 3 Oeste 6 Oeste 0 -- -- 28
2017-09-03 22:00:00 22.3 0 Calma 3 Noroeste 0 -- -- 28
2017-09-03 21:00:00 25.4 3 Noroeste 17 Noroeste 0 -- -- 23
2017-09-03 20:00:00 28.1 11 Noroeste 23 Noroeste 0 -- -- 19
2017-09-03 19:00:00 29.3 12 Noroeste 30 Oeste 0 -- -- 18
2017-09-03 18:00:00 30.5 16 Oeste 31 Noroeste 0 -- -- 16
2017-09-03 17:00:00 30.9 12 Oeste 31 Noroeste 0 -- -- 20
2017-09-03 16:00:00 30.4 16 Oeste 35 Noroeste 0 -- -- 19
2017-09-03 15:00:00 29.8 17 Oeste 34 Noroeste 0 -- -- 24
2017-09-03 14:00:00 29 12 Oeste 26 Noroeste 0 -- -- 27
2017-09-03 13:00:00 26.5 7 Sudoeste 19 Oeste 0 -- -- 34
2017-09-03 12:00:00 23.5 5 Sudoeste 12 Sudoeste 0 -- -- 38
2017-09-03 11:00:00 20.4 3 Sudeste 8 Este 0 -- -- 57
2017-09-03 10:00:00 16.8 4 Este 8 Sudeste 0 -- -- 71
2017-09-03 09:00:00 14.6 3 Nordeste 9 Nordeste 0 -- -- 73
2017-09-03 08:00:00 14.1 4 Nordeste 10 Nordeste 0 -- -- 75
2017-09-03 07:00:00 13.9 4 Nordeste 8 Nordeste 0 -- -- 68
2017-09-03 06:00:00 14.2 2 Norte 9 Nordeste 0 -- -- 57
2017-09-03 05:00:00 14.7 4 Nordeste 10 Nordeste 0 -- -- 44
2017-09-03 04:00:00 14.6 2 Nordeste 9 Nordeste 0 -- -- 38
2017-09-03 03:00:00 15.1 6 Nordeste 10 Nordeste 0 -- -- 35
2017-09-03 02:00:00 15.1 2 Nordeste 5 Este 0 -- -- 36
2017-09-03 01:00:00 15.7 2 Nordeste 5 Nordeste 0 -- -- 35
2017-09-03 00:00:00 16.7 0 Calma 5 Este 0 -- -- 34
2017-09-02 23:00:00 18.5 0 Calma 6 Norte 0 -- -- 28
2017-09-02 22:00:00 20 3 Norte 9 Oeste 0 -- -- 25
2017-09-02 21:00:00 22.6 5 Noroeste 13 Noroeste 0 -- -- 21
2017-09-02 20:00:00 25.5 10 Noroeste 19 Noroeste 0 -- -- 17
2017-09-02 19:00:00 26.7 10 Noroeste 22 Noroeste 0 -- -- 18
2017-09-02 18:00:00 28 10 Noroeste 21 Noroeste 0 -- -- 16
2017-09-02 17:00:00 28.6 8 Noroeste 22 Oeste 0 -- -- 20
2017-09-02 16:00:00 28.3 9 Oeste 20 Oeste 0 -- -- 23
2017-09-02 15:00:00 27.7 9 Oeste 21 Oeste 0 -- -- 29
2017-09-02 14:00:00 26.3 6 Sudoeste 15 Noroeste 0 -- -- 32
2017-09-02 13:00:00 23.9 6 Nordeste 13 Noroeste 0 -- -- 39
2017-09-02 12:00:00 22.1 4 Este 11 Nordeste 0 -- -- 41
2017-09-02 11:00:00 19.8 6 Nordeste 14 Nordeste 0 -- -- 42
2017-09-02 10:00:00 17.1 6 Nordeste 13 Nordeste 0 -- -- 55
2017-09-02 09:00:00 15.9 6 Norte 17 Nordeste 0 -- -- 60
2017-09-02 08:00:00 15 5 Nordeste 14 Nordeste 0 -- -- 64
2017-09-02 07:00:00 15.4 6 Nordeste 16 Nordeste 0 -- -- 63
2017-09-02 06:00:00 16.3 8 Nordeste 24 Nordeste 0 -- -- 59
2017-09-02 05:00:00 16.8 10 Nordeste 19 Nordeste 0 -- -- 58
2017-09-02 04:00:00 16.7 11 Nordeste 21 Nordeste 0 -- -- 59
2017-09-02 03:00:00 17.4 11 Nordeste 21 Nordeste 0 -- -- 70
2017-09-02 02:00:00 18.1 13 Este 31 Este 0 -- -- 83
2017-09-02 01:00:00 18.6 12 Este 22 Este 0 -- -- 82
2017-09-02 00:00:00 18.5 10 Este 24 Este 0 -- -- 79
2017-09-01 23:00:00 20.1 13 Este 28 Este 0 -- -- 74
2017-09-01 22:00:00 24.1 4 Sudeste 9 Sur 0 -- -- 58
2017-09-01 21:00:00 25.3 4 Norte 16 Norte 0 -- -- 39
2017-09-01 20:00:00 26.9 8 Norte 19 Norte 0 -- -- 37
2017-09-01 19:00:00 27.5 7 Noroeste 24 Noroeste 0 -- -- 36
2017-09-01 18:00:00 28.1 8 Oeste 22 Noroeste 0 -- -- 35
2017-09-01 17:00:00 29.5 5 Norte 14 Oeste 0 -- -- 36
2017-09-01 16:00:00 27.7 4 Norte 15 Noroeste 0 -- -- 41
2017-09-01 15:00:00 26.8 7 Este 19 Este 0 -- -- 47
2017-09-01 14:00:00 26.5 6 Sudeste 21 Este 0 -- -- 49
2017-09-01 13:00:00 25.5 11 Sudeste 23 Sur 0 -- -- 57
2017-09-01 12:00:00 23.4 12 Sudeste 26 Sudeste 0 -- -- 62
2017-09-01 11:00:00 21.4 13 Sudeste 24 Sudeste 0 -- -- 72
2017-09-01 10:00:00 19.8 12 Sudeste 23 Sudeste 0 -- -- 80
2017-09-01 09:00:00 17.6 6 Este 17 Este 0 -- -- 88
2017-09-01 08:00:00 16.9 5 Este 14 Este 0 -- -- 88
2017-09-01 07:00:00 17.3 6 Este 15 Este 0 -- -- 87
2017-09-01 06:00:00 18 9 Este 17 Este 0 -- -- 85
2017-09-01 05:00:00 18.6 7 Este 16 Este 0 -- -- 84
2017-09-01 04:00:00 18.4 7 Este 21 Este 0 -- -- 86
2017-09-01 03:00:00 18.2 9 Este 23 Sudeste 0 -- -- 87
2017-09-01 02:00:00 18.7 11 Este 23 Este 0 -- -- 87
2017-09-01 01:00:00 18.9 8 Este 16 Este 0 -- -- 75
2017-09-01 00:00:00 19 5 Nordeste 14 Este 0 -- -- 59
2017-08-31 23:00:00 19.8 0 Calma 5 Nordeste 0 -- -- 57
2017-08-31 22:00:00 21.3 0 Calma 2 Norte 0 -- -- 52
2017-08-31 21:00:00 23.4 0 Calma 10 Oeste 0 -- -- 42
2017-08-31 20:00:00 25.7 6 Oeste 14 Noroeste 0 -- -- 34
2017-08-31 19:00:00 26.7 2 Sudeste 15 Oeste 0 -- -- 34
2017-08-31 18:00:00 28.1 4 Sudoeste 15 Noroeste 0 -- -- 32
2017-08-31 17:00:00 28.7 7 Oeste 22 Oeste 0 -- -- 33
2017-08-31 16:00:00 27.7 6 Sudoeste 15 Sudoeste 0 -- -- 35
2017-08-31 15:00:00 27.2 6 Sur 13 Sudoeste 0 -- -- 38
2017-08-31 14:00:00 27.6 5 Noroeste 14 Noroeste 0 -- -- 36
2017-08-31 13:00:00 25.5 4 Nordeste 14 Este 0 -- -- 39
2017-08-31 12:00:00 23.4 5 Sudeste 11 Sur 0 -- -- 52
2017-08-31 11:00:00 20 3 Sur 11 Sur 0 -- -- 65
2017-08-31 10:00:00 18 4 Sur 11 Sur 0 -- -- 77
2017-08-31 09:00:00 15.9 3 Nordeste 5 Norte 0 -- -- 84
2017-08-31 08:00:00 14.6 2 Noroeste 4 Noroeste 0 -- -- 86
2017-08-31 07:00:00 15 2 Este 7 Este 0 -- -- 85
2017-08-31 06:00:00 14.9 0 Calma 6 Norte 0 -- -- 84
2017-08-31 05:00:00 14.6 0 Calma 3 Norte 0 -- -- 85
2017-08-31 04:00:00 15.1 0 Calma 3 Norte 0 -- -- 83
2017-08-31 03:00:00 15.8 0 Calma 4 Nordeste 0 -- -- 81
2017-08-31 02:00:00 16.4 0 Calma 2 Noroeste 0 -- -- 80
2017-08-31 01:00:00 16.9 0 Calma 4 Sudoeste 0 -- -- 77
2017-08-31 00:00:00 17.3 0 Calma 2 Oeste 0 -- -- 75
2017-08-30 23:00:00 18.3 0 Calma 2 Sudoeste 0 -- -- 72
2017-08-30 22:00:00 19.7 0 Calma 5 Sur 0.2 -- -- 62
2017-08-30 21:00:00 21.6 2 Sur 10 Sur 0 -- -- 54
2017-08-30 20:00:00 23.3 4 Sudoeste 14 Sur 0 -- -- 48
2017-08-30 19:00:00 23.7 5 Sudoeste 10 Sur 0 -- -- 45
2017-08-30 18:00:00 24.3 6 Sur 16 Sur 0.2 -- -- 45
2017-08-30 17:00:00 24.5 4 Sudoeste 16 Sudoeste 0 -- -- 46
2017-08-30 16:00:00 23.9 6 Sur 15 Sur 0.2 -- -- 51
2017-08-30 15:00:00 22.9 5 Sudoeste 17 Oeste 0 -- -- 55
2017-08-30 14:00:00 21.6 5 Sudoeste 13 Oeste 0.2 -- -- 63
2017-08-30 13:00:00 19.7 5 Sudoeste 14 Sur 0 -- -- 69
2017-08-30 12:00:00 18.7 4 Sudoeste 13 Sur 0.2 -- -- 74
2017-08-30 11:00:00 16.9 3 Sur 6 Sudoeste 0 -- -- 84
2017-08-30 10:00:00 15.6 0 Calma 4 Sudeste 0.2 -- -- 93
2017-08-30 09:00:00 14.8 0 Calma 6 Este 0 -- -- 94
2017-08-30 08:00:00 14.6 2 Este 8 Este 0.2 -- -- 94
2017-08-30 07:00:00 14.9 4 Sudeste 13 Sudeste 0 -- -- 93
2017-08-30 06:00:00 15.2 5 Sudeste 12 Sudeste 0.2 -- -- 92
2017-08-30 05:00:00 15.5 7 Sudeste 15 Sudeste 0 -- -- 91
2017-08-30 04:00:00 15.6 9 Sudeste 21 Sudeste 0 -- -- 91
2017-08-30 03:00:00 16 8 Sudeste 21 Sudeste 0.2 -- -- 89
2017-08-30 02:00:00 16.1 5 Este 21 Sudeste 0 -- -- 87
2017-08-30 01:00:00 16.2 8 Sudeste 31 Sudeste 0.2 -- -- 83
2017-08-30 00:00:00 16.4 10 Este 32 Sudeste 0 -- -- 84
2017-08-29 23:00:00 17.3 13 Sudeste 27 Sudeste 0.2 -- -- 75
2017-08-29 22:00:00 17.2 6 Nordeste 13 Este 0 -- -- 77
2017-08-29 21:00:00 18.3 7 Este 23 Este 0.2 -- -- 74
2017-08-29 20:00:00 19.7 11 Este 22 Este 0 -- -- 70
2017-08-29 19:00:00 20.9 9 Este 26 Sudeste 0.2 -- -- 73
2017-08-29 18:00:00 20.8 14 Sudeste 32 Sudeste 0.2 -- -- 76
2017-08-29 17:00:00 20.3 10 Sur 33 Sur 0 -- -- 78
2017-08-29 16:00:00 24.5 8 Sur 30 Sudeste 0.2 -- -- 53
2017-08-29 15:00:00 23.7 12 Sur 23 Sur 0.2 -- -- 57
2017-08-29 14:00:00 23.4 9 Sur 23 Sudeste 0 -- -- 64
2017-08-29 13:00:00 22.5 9 Sur 24 Sur 0.2 -- -- 69
2017-08-29 12:00:00 19.8 5 Sur 18 Sur 0.2 -- -- 77
2017-08-29 11:00:00 19.2 9 Sudeste 17 Este 0 -- -- 80
2017-08-29 10:00:00 17.6 9 Este 18 Este 0.2 -- -- 84
2017-08-29 09:00:00 16.1 4 Este 9 Nordeste 0.2 -- -- 90
2017-08-29 08:00:00 15.3 4 Este 9 Este 0 -- -- 90
2017-08-29 07:00:00 15.4 4 Nordeste 10 Norte 0.2 -- -- 89
2017-08-29 06:00:00 15.7 5 Norte 13 Noroeste 0.2 -- -- 89
2017-08-29 05:00:00 15.2 5 Noroeste 9 Nordeste 0 -- -- 91
2017-08-29 04:00:00 15.5 3 Nordeste 10 Este 0.2 -- -- 91
2017-08-29 03:00:00 15.8 4 Nordeste 8 Nordeste 0.2 -- -- 90
2017-08-29 02:00:00 16 3 Norte 6 Norte 0.2 -- -- 90
2017-08-29 01:00:00 16.3 2 Nordeste 8 Noroeste 0 -- -- 91
2017-08-29 00:00:00 16.3 3 Norte 13 Este 0.2 -- -- 90
2017-08-28 23:00:00 16.5 3 Nordeste 11 Sudeste 0.2 -- -- 88
2017-08-28 22:00:00 16.8 2 Este 9 Nordeste 0.2 -- -- 87
2017-08-28 21:00:00 16.9 3 Norte 13 Noroeste 0.2 -- -- 85
2017-08-28 20:00:00 17 3 Nordeste 18 Oeste 0.2 -- -- 84
2017-08-28 19:00:00 18.5 12 Oeste 30 Oeste 0.2 -- -- 72
2017-08-28 18:00:00 20.1 16 Oeste 40 Oeste 0.4 -- -- 64
2017-08-28 17:00:00 22.6 5 Oeste 23 Sudoeste 0 -- -- 72
2017-08-28 16:00:00 25.6 8 Oeste 21 Oeste 0 -- -- 58
2017-08-28 15:00:00 25.9 9 Sudeste 19 Sudeste 0 -- -- 55
2017-08-28 14:00:00 25 9 Sudeste 26 Sudeste 0 -- -- 58
2017-08-28 13:00:00 24.3 10 Sudeste 15 Sur 0 -- -- 60
2017-08-28 12:00:00 24 8 Sudeste 18 Sudeste 0 -- -- 62
2017-08-28 11:00:00 23.5 9 Sudeste 18 Sudeste 0 -- -- 65
2017-08-28 10:00:00 21.8 4 Este 13 Nordeste 0.2 -- -- 74
2017-08-28 09:00:00 19.4 6 Nordeste 17 Este 0.2 -- -- 83
2017-08-28 08:00:00 18.9 8 Este 18 Nordeste 0 -- -- 84
2017-08-28 07:00:00 19.5 9 Sudeste 31 Sudeste 0.2 -- -- 80
2017-08-28 06:00:00 19.3 16 Sudeste 29 Este 0 -- -- 81
2017-08-28 05:00:00 19.2 10 Este 24 Este 0.2 -- -- 74
2017-08-28 04:00:00 18.8 10 Este 31 Este 0 -- -- 74
2017-08-28 03:00:00 18.4 13 Sudeste 24 Sudeste 0.2 -- -- 74
2017-08-28 02:00:00 18.2 7 Este 22 Este 0.2 -- -- 76
2017-08-28 01:00:00 18.2 8 Sudeste 21 Este 0.2 -- -- 76
2017-08-28 00:00:00 17.5 5 Este 12 Este 0 -- -- 81
2017-08-27 23:00:00 18.2 4 Este 19 Este 0.2 -- -- 79
2017-08-27 22:00:00 18.9 10 Sudeste 23 Este 0.2 -- -- 77
2017-08-27 21:00:00 19.2 6 Este 18 Este 0.2 -- -- 79
2017-08-27 20:00:00 19.7 9 Este 22 Este 0.2 -- -- 76
2017-08-27 19:00:00 19 10 Sudeste 27 Sudoeste 0.4 -- -- 79
2017-08-27 18:00:00 20.2 8 Sur 28 Sudeste 0.2 -- -- 75
2017-08-27 17:00:00 19.4 12 Sudeste 31 Sur 0.4 -- -- 79
2017-08-27 16:00:00 19.6 9 Sur 26 Oeste 0.4 -- -- 76
2017-08-27 15:00:00 21.1 11 Noroeste 59 Oeste 0.2 -- -- 71
2017-08-27 14:00:00 25.9 3 Sur 15 Sudeste 0 -- -- 53
2017-08-27 13:00:00 25.5 9 Sudeste 14 Sudeste 0 -- -- 55
2017-08-27 12:00:00 24.7 7 Sur 25 Sur 0 -- -- 56
2017-08-27 11:00:00 24.6 12 Sudeste 22 Sudeste 0 -- -- 55
2017-08-27 10:00:00 22.2 9 Este 17 Nordeste 0 -- -- 67
2017-08-27 09:00:00 20.5 6 Nordeste 14 Este 0 -- -- 76
2017-08-27 08:00:00 20.3 6 Nordeste 15 Este 0 -- -- 74
2017-08-27 07:00:00 20.1 7 Este 18 Este 0 -- -- 75
2017-08-27 06:00:00 20.1 7 Este 18 Este 0 -- -- 78
2017-08-27 05:00:00 20 12 Sudeste 33 Sudeste 0.4 -- -- 80
2017-08-27 04:00:00 20.4 5 Este 15 Este 0 -- -- 77
2017-08-27 03:00:00 20.8 7 Este 16 Nordeste 0 -- -- 72
2017-08-27 02:00:00 21.4 10 Este 20 Este 0 -- -- 70
2017-08-27 01:00:00 22.3 9 Este 33 Este 0 -- -- 68
2017-08-27 00:00:00 23.5 18 Sudeste 33 Sudeste 0 -- -- 68
2017-08-26 23:00:00 24.3 7 Nordeste 14 Nordeste 0 -- -- 48
2017-08-26 22:00:00 25 7 Nordeste 17 Nordeste 0 -- -- 47
2017-08-26 21:00:00 26.4 7 Este 18 Este 0 -- -- 50
2017-08-26 20:00:00 28.4 9 Este 24 Este 0 -- -- 42
2017-08-26 19:00:00 30.1 9 Este 28 Este 0 -- -- 33
2017-08-26 18:00:00 30.8 13 Sudeste 36 Este 0 -- -- 32
2017-08-26 17:00:00 35 9 Norte 18 Norte 0 -- -- 23
2017-08-26 16:00:00 34.4 7 Oeste 18 Noroeste 0 -- -- 24
2017-08-26 15:00:00 35.3 7 Oeste 23 Oeste 0 -- -- 24
2017-08-26 14:00:00 33.1 5 Sudoeste 18 Sudoeste 0 -- -- 28
2017-08-26 13:00:00 32.2 6 Sur 18 Sudeste 0 -- -- 30
2017-08-26 12:00:00 29.5 9 Sudeste 18 Sudeste 0 -- -- 42
2017-08-26 11:00:00 26 10 Sudeste 23 Sudeste 0 -- -- 51
2017-08-26 10:00:00 23.8 12 Sudeste 22 Este 0 -- -- 58
2017-08-26 09:00:00 20.3 5 Este 12 Este 0 -- -- 67
2017-08-26 08:00:00 18.8 4 Nordeste 8 Nordeste 0 -- -- 73
2017-08-26 07:00:00 19.2 4 Nordeste 15 Este 0 -- -- 71
2017-08-26 06:00:00 20.8 9 Este 16 Este 0 -- -- 69
2017-08-26 05:00:00 21.4 7 Este 15 Este 0 -- -- 65
2017-08-26 04:00:00 21.7 6 Este 24 Sudeste 0 -- -- 61
2017-08-26 03:00:00 23.1 15 Sudeste 28 Este 0 -- -- 56
2017-08-26 02:00:00 23.5 10 Sudeste 28 Sudeste 0 -- -- 54
2017-08-26 01:00:00 24.7 16 Sudeste 31 Sudeste 0 -- -- 49
2017-08-26 00:00:00 25.8 16 Sudeste 33 Sudeste 0 -- -- 43
2017-08-25 23:00:00 26.6 15 Sudeste 32 Sudeste 0 -- -- 39
2017-08-25 22:00:00 26.5 18 Sudeste 32 Sudeste 0 -- -- 38
2017-08-25 21:00:00 27.8 15 Sudeste 32 Sudeste 0 -- -- 35
2017-08-25 20:00:00 28.7 15 Sudeste 32 Sudeste 0 -- -- 34
2017-08-25 19:00:00 31.6 13 Sur 32 Sur 0 -- -- 27
2017-08-25 18:00:00 33.3 17 Sur 49 Sudoeste 0 -- -- 25
2017-08-25 17:00:00 35.1 8 Sur 19 Sur 0 -- -- 23
2017-08-25 16:00:00 35.4 7 Sur 21 Sur 0 -- -- 23
2017-08-25 15:00:00 33.8 8 Sudoeste 15 Sur 0 -- -- 25
2017-08-25 14:00:00 33.7 9 Sur 19 Sudeste 0 -- -- 26
2017-08-25 13:00:00 31.9 6 Sudeste 17 Sudeste 0 -- -- 29
2017-08-25 12:00:00 28.7 9 Sudeste 20 Este 0 -- -- 34
2017-08-25 11:00:00 25 10 Este 18 Este 0 -- -- 45
2017-08-25 10:00:00 22.2 8 Este 18 Sudeste 0 -- -- 54
2017-08-25 09:00:00 19.1 6 Este 11 Este 0 -- -- 66
2017-08-25 08:00:00 18.7 3 Nordeste 10 Este 0 -- -- 69
2017-08-25 07:00:00 18.9 5 Este 10 Nordeste 0 -- -- 70
2017-08-25 06:00:00 19.3 6 Este 12 Nordeste 0 -- -- 67
2017-08-25 05:00:00 19.9 7 Nordeste 12 Nordeste 0 -- -- 66
2017-08-25 04:00:00 20.9 5 Nordeste 13 Nordeste 0 -- -- 66
2017-08-25 03:00:00 21.8 5 Nordeste 11 Nordeste 0 -- -- 63
2017-08-25 02:00:00 22.8 3 Nordeste 18 Este 0 -- -- 49
2017-08-25 01:00:00 24.1 9 Este 15 Sudeste 0 -- -- 49
2017-08-25 00:00:00 25.5 6 Este 15 Norte 0 -- -- 47
2017-08-24 23:00:00 26.9 7 Norte 25 Sudeste 0 -- -- 42
2017-08-24 22:00:00 28.7 10 Sudeste 28 Sur 0 -- -- 38
2017-08-24 21:00:00 31.1 9 Sur 22 Sudeste 0 -- -- 28
2017-08-24 20:00:00 33.3 8 Sudoeste 24 Oeste 0 -- -- 23
2017-08-24 19:00:00 34.8 11 Oeste 29 Oeste 0 -- -- 21
2017-08-24 18:00:00 36.5 15 Oeste 31 Oeste 0 -- -- 20
2017-08-24 17:00:00 36.5 10 Sudoeste 30 Oeste 0 -- -- 22
2017-08-24 16:00:00 35.9 10 Sur 27 Sur 0 -- -- 24
2017-08-24 15:00:00 35.4 8 Sudoeste 24 Sudoeste 0 -- -- 25
2017-08-24 14:00:00 33.5 8 Sur 20 Sur 0 -- -- 26
2017-08-24 13:00:00 31 6 Sudeste 17 Sudeste 0 -- -- 31
2017-08-24 12:00:00 28.6 7 Sur 19 Sur 0 -- -- 35
2017-08-24 11:00:00 26.2 8 Sudeste 19 Sudeste 0 -- -- 42
2017-08-24 10:00:00 22.7 7 Este 15 Sudeste 0 -- -- 54
2017-08-24 09:00:00 19.3 6 Este 12 Este 0 -- -- 62
2017-08-24 08:00:00 17.8 4 Este 13 Nordeste 0 -- -- 69
2017-08-24 07:00:00 17.9 6 Nordeste 14 Nordeste 0 -- -- 72
2017-08-24 06:00:00 18.6 5 Nordeste 11 Este 0 -- -- 70
2017-08-24 05:00:00 19.5 5 Nordeste 13 Nordeste 0 -- -- 69
2017-08-24 04:00:00 20 8 Nordeste 13 Nordeste 0 -- -- 68
2017-08-24 03:00:00 21.3 6 Este 17 Nordeste 0 -- -- 49
2017-08-24 02:00:00 22.5 6 Este 20 Este 0 -- -- 41
2017-08-24 01:00:00 23.6 7 Este 28 Sudeste 0 -- -- 38
2017-08-24 00:00:00 25.2 17 Sudeste 32 Sudeste 0 -- -- 36
2017-08-23 23:00:00 26.3 18 Sudeste 33 Sudeste 0 -- -- 38
2017-08-23 22:00:00 27.9 19 Sudeste 33 Este 0 -- -- 37
2017-08-23 21:00:00 29.3 13 Sudeste 26 Sudeste 0 -- -- 36
2017-08-23 20:00:00 29.4 8 Sudeste 26 Sur 0 -- -- 34
2017-08-23 19:00:00 33.5 14 Sudeste 33 Sur 0 -- -- 31
2017-08-23 18:00:00 34.9 8 Sur 20 Sur 0 -- -- 26
2017-08-23 17:00:00 36.6 4 Sur 22 Sudeste 0 -- -- 24
2017-08-23 16:00:00 36.5 5 Sudoeste 24 Sudeste 0 -- -- 25
2017-08-23 15:00:00 36.2 7 Sudoeste 19 Sur 0 -- -- 26
2017-08-23 14:00:00 35 7 Sudeste 16 Sudoeste 0 -- -- 27
2017-08-23 13:00:00 33.1 5 Sudoeste 17 Sudoeste 0 -- -- 30
2017-08-23 12:00:00 30.5 6 Sur 16 Sur 0 -- -- 34
2017-08-23 11:00:00 27.6 4 Sur 10 Sur 0 -- -- 38
2017-08-23 10:00:00 24.1 6 Este 11 Este 0 -- -- 48
2017-08-23 09:00:00 20.7 5 Este 10 Este 0 -- -- 53
2017-08-23 08:00:00 19.4 3 Nordeste 8 Nordeste 0 -- -- 56
2017-08-23 07:00:00 19.7 3 Nordeste 9 Nordeste 0 -- -- 55
2017-08-23 06:00:00 20.2 2 Norte 10 Nordeste 0 -- -- 54
2017-08-23 05:00:00 21 4 Nordeste 12 Nordeste 0 -- -- 54
2017-08-23 04:00:00 22.2 6 Nordeste 14 Este 0 -- -- 55
2017-08-23 03:00:00 23.1 9 Este 17 Este 0 -- -- 55
2017-08-23 02:00:00 24.2 6 Este 14 Este 0 -- -- 51
2017-08-23 01:00:00 25.2 5 Nordeste 22 Este 0 -- -- 49
2017-08-23 00:00:00 26.6 13 Sudeste 26 Sudeste 0 -- -- 44
2017-08-22 23:00:00 28.2 12 Sur 20 Sur 0 -- -- 38
2017-08-22 22:00:00 29.9 10 Sur 19 Sur 0 -- -- 34
2017-08-22 21:00:00 31.2 2 Oeste 12 Oeste 0 -- -- 29
2017-08-22 20:00:00 33.6 4 Oeste 18 Noroeste 0 -- -- 26
2017-08-22 19:00:00 35 5 Sudoeste 19 Oeste 0 -- -- 24
2017-08-22 18:00:00 36.8 8 Sudoeste 22 Sur 0 -- -- 22
2017-08-22 17:00:00 36.9 6 Oeste 22 Oeste 0 -- -- 25
2017-08-22 16:00:00 36.4 5 Sur 15 Oeste 0 -- -- 28
2017-08-22 15:00:00 35.4 4 Sudoeste 15 Oeste 0 -- -- 31
2017-08-22 14:00:00 33.6 5 Sur 16 Sur 0 -- -- 33
2017-08-22 13:00:00 31.3 6 Sur 14 Sur 0 -- -- 37
2017-08-22 12:00:00 28.6 6 Sur 17 Sur 0 -- -- 44
2017-08-22 11:00:00 25.9 7 Sur 15 Sur 0 -- -- 53
2017-08-22 10:00:00 23.3 10 Sudeste 17 Sur 0 -- -- 65
2017-08-22 09:00:00 19.6 4 Nordeste 8 Nordeste 0 -- -- 78
2017-08-22 08:00:00 18.2 4 Nordeste 10 Nordeste 0 -- -- 82
2017-08-22 07:00:00 18.2 3 Este 10 Este 0 -- -- 81
2017-08-22 06:00:00 18.6 8 Este 15 Nordeste 0 -- -- 80
2017-08-22 05:00:00 18.9 7 Nordeste 16 Nordeste 0 -- -- 79
2017-08-22 04:00:00 19.4 8 Nordeste 18 Este 0 -- -- 77
2017-08-22 03:00:00 20.5 8 Este 20 Este 0 -- -- 74
2017-08-22 02:00:00 21.5 9 Este 23 Sudeste 0 -- -- 71
2017-08-22 01:00:00 22.4 7 Este 19 Este 0 -- -- 67
2017-08-22 00:00:00 23.6 6 Este 17 Este 0 -- -- 63